Impacts TAF Board
For situational awareness. Not to be used for flight planning purposes.
IDs:

KJFK - New York/Kennedy Int, NY, US

Issued at 0855 UTC 17 Feb 2019
Updated at 0947 UTC 17 Feb 2019
Potential Impact None Slight Moderate High
Time0851Z 17/10Z 17/11Z 17/12Z 17/13Z 17/14Z 17/15Z 17/16Z 17/17Z 17/18Z 17/19Z 17/20Z 17/21Z 17/22Z>>
Type OBS PRVL PRVL PRVL PRVL PRVL PRVL PRVL PRVL PRVL PRVL PRVL PRVL PRVL
VIS 10 >6 >6 >6 >6 >6 >6 >6 >6 >6 >6 >6 >6 >6
CIG -- -- -- -- -- -- -- -- -- -- -- 200 200 200
Cover FEW FEW FEW FEW FEW FEW FEW FEW FEW SCT SCT BKN BKN BKN
FltCat VFR VFR VFR VFR VFR VFR VFR VFR VFR VFR VFR VFR VFR VFR
WX -- -- -- -- -- -- -- -- -- -- -- -- -- --
WDir 340 360 360 360 30 30 30 30 30 140 140 170 170 170
WSpd 12 10 10 10 7 7 7 7 7 5 5 7 7 7
WGst -- -- -- -- -- -- -- -- -- -- -- -- -- --
Raw TAF
KJFK 170855Z 1709/1812 36010KT P6SM FEW250
  FM171300 03007KT P6SM FEW250
  FM171800 14005KT P6SM SCT250
  FM172000 17007KT P6SM SCT100 BKN200
  FM180300 12008KT 3SM -SNPL BR BKN025 OVC050
  FM180700 07010KT 2SM -PLRA BR BKN008
  FM181000 06012KT 2SM -RA BR BKN006


Raw METAR
KJFK 170851Z 34012KT 10SM FEW250 M03/M09 A3008 RMK AO2 SLP184 T10281094 53004 $
KJFK 170751Z 35013KT 10SM FEW250 M02/M10 A3006 RMK AO2 SLP179 T10221100 $
KJFK 170651Z 36012G18KT 10SM FEW250 M02/M09 A3007 RMK AO2 SLP181 T10171089 $

METAR Board
Radar Display
Forecast Discussion
For situational awareness. Not to be used for flight planning purposes.